Time;durP1;ratioP1;P1;durP2;ratioP2;P2;SDS_P1;SDS_P2;PMS_P1;PMS_P2;Temp;Humidity;BMP_temperature;BMP_pressure;BME280_temperature;BME280_humidity;BME280_pressure;Samples;Min_cycle;Max_cycle;Signal;HPM_P1;HPM_P2
2021/11/02 00:02:03;;;;;;;12.75;5.93;;;;;;;-146.90;100.00;60518.97;5028282;28;20052;-77
2021/11/02 00:04:28;;;;;;;10.45;6.03;;;;;;;-146.90;100.00;60518.97;5030683;28;20491;-77
2021/11/02 00:06:53;;;;;;;10.73;5.80;;;;;;;-146.90;100.00;60518.97;5030045;28;20033;-77
2021/11/02 00:09:24;;;;;;;12.80;5.75;;;;;;;-146.90;100.00;60518.97;5027197;28;20029;-77
2021/11/02 00:11:50;;;;;;;11.90;6.10;;;;;;;-146.90;100.00;60518.97;5028797;28;20049;-77
2021/11/02 00:14:15;;;;;;;8.63;5.63;;;;;;;-146.90;100.00;60518.97;5028594;28;20022;-77
2021/11/02 00:16:43;;;;;;;12.10;6.28;;;;;;;-146.90;100.00;60518.97;5027411;28;20036;-77
2021/11/02 00:19:08;;;;;;;9.85;5.57;;;;;;;-146.90;100.00;60518.97;5029631;28;20030;-77
2021/11/02 00:21:39;;;;;;;12.18;5.72;;;;;;;-146.90;100.00;60518.97;5029224;28;20037;-77
2021/11/02 00:24:14;;;;;;;15.15;5.85;;;;;;;-146.90;100.00;60518.97;5028908;28;20064;-77
2021/11/02 00:26:40;;;;;;;9.68;5.88;;;;;;;-146.90;100.00;60518.97;5029641;28;20025;-77
2021/11/02 00:29:05;;;;;;;11.95;5.80;;;;;;;-146.90;100.00;60518.97;5030024;28;20037;-77
2021/11/02 00:31:31;;;;;;;12.63;5.90;;;;;;;-146.90;100.00;60518.97;5029760;28;20029;-77
2021/11/02 00:33:56;;;;;;;10.50;6.40;;;;;;;-146.90;100.00;60518.97;5027994;28;20041;-77
2021/11/02 00:36:21;;;;;;;9.95;5.93;;;;;;;-146.90;100.00;60518.97;5028475;28;20033;-77
2021/11/02 00:38:47;;;;;;;11.65;5.65;;;;;;;-146.90;100.00;60518.97;5029005;28;20068;-77
2021/11/02 00:41:12;;;;;;;15.23;6.05;;;;;;;-146.90;100.00;60518.97;5029799;28;20041;-77
2021/11/02 00:43:38;;;;;;;12.23;6.10;;;;;;;-146.90;100.00;60518.97;5028380;28;20407;-77
2021/11/02 00:46:04;;;;;;;14.00;6.07;;;;;;;-146.90;100.00;60518.97;5030182;28;20079;-77
2021/11/02 00:48:29;;;;;;;10.43;5.97;;;;;;;-146.90;100.00;60518.97;5028789;28;20091;-77
2021/11/02 00:50:55;;;;;;;14.65;6.60;;;;;;;-146.90;100.00;60518.97;5029172;28;20108;-77
2021/11/02 00:53:20;;;;;;;10.65;5.70;;;;;;;-146.90;100.00;60518.97;5030129;28;20029;-77
2021/11/02 00:55:46;;;;;;;14.73;5.65;;;;;;;-146.90;100.00;60518.97;5027060;28;20033;-77
2021/11/02 00:58:12;;;;;;;13.48;6.10;;;;;;;-146.90;100.00;60518.97;5029485;28;20462;-76
2021/11/02 01:00:38;;;;;;;10.75;5.90;;;;;;;-146.90;100.00;60518.97;5027410;28;20034;-76
2021/11/02 01:03:05;;;;;;;14.30;6.53;;;;;;;-146.90;100.00;60518.97;5028162;28;20029;-76
2021/11/02 01:05:31;;;;;;;11.63;5.95;;;;;;;-146.90;100.00;60518.97;5026491;28;20189;-75
2021/11/02 01:07:56;;;;;;;13.85;6.03;;;;;;;-146.90;100.00;60518.97;5029431;28;20474;-77
2021/11/02 01:10:22;;;;;;;10.95;5.85;;;;;;;-146.90;100.00;60518.97;5029330;28;20466;-76
2021/11/02 01:12:48;;;;;;;11.13;5.95;;;;;;;-146.90;100.00;60518.97;5028917;28;20074;-77
2021/11/02 01:15:17;;;;;;;9.43;5.93;;;;;;;-146.90;100.00;60518.97;5025878;28;20033;-76
2021/11/02 01:17:43;;;;;;;11.40;6.25;;;;;;;-146.90;100.00;60518.97;5027230;28;20052;-76
2021/11/02 01:20:11;;;;;;;11.30;5.90;;;;;;;-146.90;100.00;60518.97;5027358;28;20095;-76
2021/11/02 01:22:36;;;;;;;11.73;6.05;;;;;;;-146.90;100.00;60518.97;5027057;28;20041;-77
2021/11/02 01:25:02;;;;;;;13.05;6.10;;;;;;;-146.90;100.00;60518.97;5026486;28;20391;-76
2021/11/02 01:27:27;;;;;;;11.15;6.35;;;;;;;-146.90;100.00;60518.97;5029032;28;20028;-76
2021/11/02 01:29:52;;;;;;;13.77;6.50;;;;;;;-146.90;100.00;60518.97;5026851;28;20213;-76
2021/11/02 01:32:18;;;;;;;14.38;6.55;;;;;;;-146.90;100.00;60518.97;5028903;28;20110;-76
2021/11/02 01:34:43;;;;;;;14.38;6.80;;;;;;;-146.90;100.00;60518.97;5026797;28;20479;-76
2021/11/02 01:37:09;;;;;;;13.48;6.30;;;;;;;-146.90;100.00;60518.97;5025222;28;20025;-76
2021/11/02 01:39:35;;;;;;;12.88;6.38;;;;;;;-146.90;100.00;60518.97;5029388;28;20525;-77
2021/11/02 01:42:01;;;;;;;14.88;7.25;;;;;;;-146.90;100.00;60518.97;5029722;28;20116;-77
2021/11/02 01:44:28;;;;;;;11.82;6.13;;;;;;;-146.90;100.00;60518.97;5029752;28;20055;-76
2021/11/02 01:46:53;;;;;;;13.70;7.10;;;;;;;-146.90;100.00;60518.97;5027036;28;20049;-76
2021/11/02 01:49:19;;;;;;;17.00;6.85;;;;;;;-146.90;100.00;60518.97;5019094;28;20502;-76
2021/11/02 01:51:45;;;;;;;14.57;6.32;;;;;;;-146.90;100.00;60518.97;5026926;28;20021;-76
2021/11/02 01:54:11;;;;;;;14.50;6.45;;;;;;;-146.90;100.00;60518.97;5027393;28;20025;-76
2021/11/02 01:56:37;;;;;;;11.95;6.25;;;;;;;-146.90;100.00;60518.97;5027466;28;20055;-77
2021/11/02 01:59:03;;;;;;;11.27;6.43;;;;;;;-146.90;100.00;60518.97;5027918;28;20022;-77
2021/11/02 02:01:40;;;;;;;12.20;6.75;;;;;;;-146.90;100.00;60518.97;5027938;28;20033;-77
2021/11/02 02:04:20;;;;;;;10.85;6.45;;;;;;;-146.90;100.00;60518.97;5025896;28;20029;-77
2021/11/02 02:06:53;;;;;;;12.35;6.88;;;;;;;-146.90;100.00;60518.97;5022113;28;20029;-77
2021/11/02 02:09:23;;;;;;;13.75;6.45;;;;;;;-146.90;100.00;60518.97;5016049;28;20048;-76
2021/11/02 02:11:51;;;;;;;12.73;6.28;;;;;;;-146.90;100.00;60518.97;5026979;28;20028;-76
2021/11/02 02:14:22;;;;;;;12.75;6.55;;;;;;;-146.90;100.00;60518.97;5027067;28;20040;-76
2021/11/02 02:16:49;;;;;;;12.18;6.95;;;;;;;-146.90;100.00;60518.97;5026178;28;20030;-76
2021/11/02 02:19:37;;;;;;;14.00;6.55;;;;;;;-146.90;100.00;60518.97;5027255;28;20060;-76
2021/11/02 02:22:08;;;;;;;12.38;6.50;;;;;;;-146.90;100.00;60518.97;5025654;28;20057;-77
2021/11/02 02:24:50;;;;;;;14.88;6.78;;;;;;;-146.90;100.00;60518.97;5027165;28;20486;-77
2021/11/02 02:27:23;;;;;;;14.77;7.50;;;;;;;-146.90;100.00;60518.97;5023889;28;20022;-77
2021/11/02 02:29:49;;;;;;;10.37;6.90;;;;;;;-146.90;100.00;60518.97;5023733;28;20033;-77
2021/11/02 02:32:23;;;;;;;15.00;7.60;;;;;;;-146.90;100.00;60518.97;5027390;28;20030;-76
2021/11/02 02:34:51;;;;;;;;;;;;;;;-146.90;100.00;60518.97;5024816;28;20476;-77
2021/11/02 02:37:21;;;;;;;16.00;8.25;;;;;;;-146.90;100.00;60518.97;5025931;28;19917;-76
2021/11/02 02:39:47;;;;;;;11.35;7.50;;;;;;;-146.90;100.00;60518.97;5026221;28;20104;-76
2021/11/02 02:42:16;;;;;;;12.80;7.80;;;;;;;-146.90;100.00;60518.97;5027035;28;20040;-76
2021/11/02 02:44:45;;;;;;;15.38;8.07;;;;;;;-146.90;100.00;60518.97;5021671;28;20040;-77
2021/11/02 02:47:10;;;;;;;16.85;7.78;;;;;;;-146.90;100.00;60518.97;5026366;28;20041;-77
2021/11/02 02:49:37;;;;;;;19.77;8.55;;;;;;;-146.90;100.00;60518.97;5024071;28;20509;-77
2021/11/02 02:52:03;;;;;;;13.00;8.15;;;;;;;-146.90;100.00;60518.97;5027393;28;21087;-77
2021/11/02 02:54:29;;;;;;;12.07;8.02;;;;;;;-146.90;100.00;60518.97;5028083;28;20029;-77
2021/11/02 02:56:54;;;;;;;12.68;7.70;;;;;;;-146.90;100.00;60518.97;5025264;28;20030;-77
2021/11/02 02:59:21;;;;;;;13.93;8.60;;;;;;;-146.90;100.00;60518.97;5026353;28;20021;-77
2021/11/02 03:01:48;;;;;;;13.88;7.97;;;;;;;-146.90;100.00;60518.97;5026506;28;20022;-76
2021/11/02 03:04:17;;;;;;;15.50;7.97;;;;;;;-146.90;100.00;60518.97;5025306;28;20029;-75
2021/11/02 03:06:51;;;;;;;14.75;8.02;;;;;;;-146.90;100.00;60518.97;5025877;28;20507;-77
2021/11/02 03:09:17;;;;;;;20.23;8.20;;;;;;;-146.90;100.00;60518.97;5026114;28;20029;-76
2021/11/02 03:11:43;;;;;;;16.90;8.55;;;;;;;-146.90;100.00;60518.97;5027825;28;20176;-76
2021/11/02 03:14:11;;;;;;;13.48;7.95;;;;;;;-146.90;100.00;60518.97;5030240;28;20383;-76
2021/11/02 03:16:49;;;;;;;13.63;7.97;;;;;;;-146.90;100.00;60518.97;5029251;28;20410;-75
2021/11/02 03:44:25;;;;;;;16.63;8.25;;;;;;;-146.90;100.00;60518.97;5028895;28;20407;-77
2021/11/02 03:49:40;;;;;;;14.88;8.43;;;;;;;-146.90;100.00;60518.97;5033421;28;20398;-78
2021/11/02 03:54:42;;;;;;;22.25;8.20;;;;;;;-146.90;100.00;60518.97;5029899;28;20061;-77
2021/11/02 04:33:13;;;;;;;13.98;7.35;;;;;;;-146.90;100.00;60518.97;5028786;28;19913;-76
2021/11/02 04:46:48;;;;;;;18.13;8.10;;;;;;;-146.90;100.00;60518.97;5026894;28;20041;-77
2021/11/02 05:56:40;;;;;;;14.65;8.20;;;;;;;-146.90;100.00;60518.97;5014509;28;20045;-77
2021/11/02 05:59:19;;;;;;;22.70;9.10;;;;;;;-146.90;100.00;60518.97;5034050;28;20320;-78
2021/11/02 06:01:56;;;;;;;19.10;8.93;;;;;;;-146.90;100.00;60518.97;5023584;28;20037;-77
2021/11/02 06:29:29;;;;;;;18.60;10.10;;;;;;;-146.90;100.00;60518.97;5016318;28;20045;-77
2021/11/02 06:31:59;;;;;;;21.67;10.05;;;;;;;-146.90;100.00;60518.97;5009454;28;20084;-78
2021/11/02 06:50:19;;;;;;;19.90;10.35;;;;;;;-146.90;100.00;60518.97;5027838;28;20041;-77
2021/11/02 08:45:58;;;;;;;23.15;14.15;;;;;;;-146.90;100.00;60518.97;5010732;28;20045;-74
2021/11/02 08:48:28;;;;;;;25.33;14.85;;;;;;;-146.90;100.00;60518.97;5020868;28;20129;-74
2021/11/02 08:50:55;;;;;;;21.80;15.07;;;;;;;-146.90;100.00;60518.97;5025280;28;20025;-74
2021/11/02 08:53:23;;;;;;;28.33;14.88;;;;;;;-146.90;100.00;60518.97;5014794;28;20052;-76
2021/11/02 08:55:51;;;;;;;27.38;16.02;;;;;;;-146.90;100.00;60518.97;5020339;28;20040;-75
2021/11/02 08:58:18;;;;;;;27.88;15.27;;;;;;;-146.90;100.00;60518.97;5019644;28;20379;-74
2021/11/02 09:00:43;;;;;;;23.50;16.05;;;;;;;-146.90;100.00;60518.97;5018762;28;20026;-76
2021/11/02 09:03:23;;;;;;;23.42;16.48;;;;;;;-146.90;100.00;60518.97;5011222;28;20033;-75
2021/11/02 09:05:51;;;;;;;25.63;15.55;;;;;;;-146.90;100.00;60518.97;5025858;28;20025;-74
2021/11/02 09:08:18;;;;;;;29.70;15.55;;;;;;;-146.90;100.00;60518.97;5028464;28;20018;-75
2021/11/02 09:10:44;;;;;;;25.55;16.17;;;;;;;-146.90;100.00;60518.97;5027487;28;20017;-74
2021/11/02 09:13:10;;;;;;;23.70;15.85;;;;;;;-146.90;100.00;60518.97;5027721;28;20048;-75
2021/11/02 09:15:37;;;;;;;29.40;16.85;;;;;;;-146.90;100.00;60518.97;5027625;28;20080;-77
2021/11/02 09:18:05;;;;;;;23.58;16.20;;;;;;;-146.90;100.00;60518.97;5029318;28;20025;-76
2021/11/02 09:20:30;;;;;;;23.75;15.18;;;;;;;-146.90;100.00;60518.97;5023582;28;20179;-76
2021/11/02 09:22:56;;;;;;;25.50;16.85;;;;;;;-146.90;100.00;60518.97;5029048;28;20029;-77
2021/11/02 09:25:21;;;;;;;26.08;16.70;;;;;;;-146.90;100.00;60518.97;5028117;28;20060;-77
2021/11/02 09:27:48;;;;;;;22.88;15.55;;;;;;;-146.90;100.00;60518.97;5029000;28;20537;-76
2021/11/02 09:30:15;;;;;;;22.92;15.27;;;;;;;-146.90;100.00;60518.97;5026895;28;20061;-76
2021/11/02 09:32:45;;;;;;;24.85;15.57;;;;;;;-146.90;100.00;60518.97;5028178;28;20036;-77
2021/11/02 09:35:12;;;;;;;23.98;15.68;;;;;;;-146.90;100.00;60518.97;5023550;28;20045;-75
2021/11/02 09:37:38;;;;;;;26.73;15.80;;;;;;;-146.90;100.00;60518.97;5022941;28;20069;-76
2021/11/02 09:40:13;;;;;;;24.75;16.77;;;;;;;-146.90;100.00;60518.97;5027567;28;20350;-76
2021/11/02 09:42:48;;;;;;;25.05;16.25;;;;;;;-146.90;100.00;60518.97;5026276;28;20025;-76
2021/11/02 09:45:20;;;;;;;27.08;16.92;;;;;;;-146.90;100.00;60518.97;5027742;28;20025;-77
2021/11/02 09:47:52;;;;;;;26.70;16.33;;;;;;;-146.90;100.00;60518.97;5028468;28;20032;-77
2021/11/02 09:50:39;;;;;;;22.75;16.80;;;;;;;-146.90;100.00;60518.97;5028388;28;20055;-76
2021/11/02 09:53:24;;;;;;;24.63;17.08;;;;;;;-146.90;100.00;60518.97;5013004;28;20109;-76
2021/11/02 09:55:59;;;;;;;29.55;18.20;;;;;;;-146.90;100.00;60518.97;5025997;28;20025;-76
2021/11/02 09:59:00;;;;;;;25.10;18.42;;;;;;;-146.90;100.00;60518.97;5027053;28;20027;-75
2021/11/02 10:01:49;;;;;;;27.23;18.23;;;;;;;-146.90;100.00;60518.97;5014263;28;20017;-74
2021/11/02 10:04:40;;;;;;;25.73;17.13;;;;;;;-146.90;100.00;60518.97;5026953;28;20108;-75
2021/11/02 10:07:17;;;;;;;26.90;18.67;;;;;;;-146.90;100.00;60518.97;5022021;28;20068;-75
2021/11/02 10:10:12;;;;;;;35.58;18.40;;;;;;;-146.90;100.00;60518.97;5028101;28;20094;-75
2021/11/02 10:12:54;;;;;;;28.30;16.85;;;;;;;-146.90;100.00;60518.97;5028319;28;20067;-76
2021/11/02 10:15:27;;;;;;;26.60;17.98;;;;;;;-146.90;100.00;60518.97;5035358;28;20033;-78
2021/11/02 10:18:15;;;;;;;24.80;16.50;;;;;;;-146.90;100.00;60518.97;5032937;28;20017;-78
2021/11/02 10:21:11;;;;;;;23.25;16.25;;;;;;;-146.90;100.00;60518.97;5029856;28;20061;-77
2021/11/02 10:23:50;;;;;;;20.60;15.02;;;;;;;-146.90;100.00;60518.97;5019551;28;20518;-78
2021/11/02 10:27:09;;;;;;;21.40;15.27;;;;;;;-146.90;100.00;60518.97;5032332;28;20061;-76
2021/11/02 10:29:44;;;;;;;18.15;14.38;;;;;;;-146.90;100.00;60518.97;4971366;28;20461;-76
2021/11/02 10:32:12;;;;;;;19.55;13.80;;;;;;;-146.90;100.00;60518.97;5023150;28;20041;-76
2021/11/02 10:34:37;;;;;;;19.10;13.98;;;;;;;-146.90;100.00;60518.97;5020179;28;20021;-77
2021/11/02 10:37:14;;;;;;;20.85;13.38;;;;;;;-146.90;100.00;60518.97;5034054;28;20483;-78
2021/11/02 10:40:07;;;;;;;18.52;14.07;;;;;;;-146.90;100.00;60518.97;5041711;28;20112;-77
2021/11/02 10:42:56;;;;;;;17.80;13.60;;;;;;;-146.90;100.00;60518.97;5035256;28;20041;-78
2021/11/02 10:45:25;;;;;;;19.15;12.95;;;;;;;-146.90;100.00;60518.97;5026714;28;20087;-78
2021/11/02 10:48:11;;;;;;;18.67;14.05;;;;;;;-146.90;100.00;60518.97;5039165;28;20328;-77
2021/11/02 10:50:48;;;;;;;18.02;13.57;;;;;;;-146.90;100.00;60518.97;5048166;28;20148;-77
2021/11/02 10:53:31;;;;;;;17.38;12.75;;;;;;;-146.90;100.00;60518.97;5034586;28;20043;-77
2021/11/02 10:56:19;;;;;;;14.77;12.27;;;;;;;-146.90;100.00;60518.97;5031181;28;20061;-76
2021/11/02 10:58:48;;;;;;;17.52;13.68;;;;;;;-146.90;100.00;60518.97;5034508;28;20055;-77
2021/11/02 11:01:14;;;;;;;18.40;14.35;;;;;;;-146.90;100.00;60518.97;5026098;28;20052;-78
2021/11/02 11:03:41;;;;;;;19.95;13.82;;;;;;;-146.90;100.00;60518.97;5023573;28;20479;-79
2021/11/02 11:06:11;;;;;;;23.00;14.52;;;;;;;-146.90;100.00;60518.97;5036237;28;20068;-79
2021/11/02 11:08:39;;;;;;;17.52;14.02;;;;;;;-146.90;100.00;60518.97;5031379;28;20079;-79
2021/11/02 11:11:09;;;;;;;21.38;15.30;;;;;;;-146.90;100.00;60518.97;5031121;28;20547;-77
2021/11/02 11:13:37;;;;;;;18.45;14.45;;;;;;;-146.90;100.00;60518.97;5034234;28;20029;-77
2021/11/02 11:16:07;;;;;;;17.38;13.52;;;;;;;-146.90;100.00;60518.97;5035490;28;20029;-80
2021/11/02 11:18:44;;;;;;;18.42;14.18;;;;;;;-146.90;100.00;60518.97;5030257;28;20041;-78
2021/11/02 11:21:12;;;;;;;18.35;13.40;;;;;;;-146.90;100.00;60518.97;5039395;28;20040;-77
2021/11/02 11:23:37;;;;;;;17.45;13.55;;;;;;;-146.90;100.00;60518.97;5030732;28;20049;-77
2021/11/02 11:26:05;;;;;;;16.30;12.52;;;;;;;-146.90;100.00;60518.97;5031802;28;20156;-77
2021/11/02 11:28:36;;;;;;;16.65;11.68;;;;;;;-146.90;100.00;60518.97;5029339;28;20033;-77
2021/11/02 11:31:02;;;;;;;15.20;12.18;;;;;;;-146.90;100.00;60518.97;5034113;28;20029;-78
2021/11/02 11:33:31;;;;;;;15.88;11.75;;;;;;;-146.90;100.00;60518.97;5028499;28;20459;-77
2021/11/02 11:36:04;;;;;;;15.85;12.00;;;;;;;-146.90;100.00;60518.97;5015130;28;20034;-78
2021/11/02 11:38:48;;;;;;;19.17;12.20;;;;;;;-146.90;100.00;60518.97;5016726;28;20470;-78
2021/11/02 11:41:15;;;;;;;12.85;11.15;;;;;;;-146.90;100.00;60518.97;5014717;28;20014;-78
2021/11/02 11:43:41;;;;;;;14.88;10.93;;;;;;;-146.90;100.00;60518.97;5025626;28;20029;-76
2021/11/02 11:46:08;;;;;;;12.65;10.65;;;;;;;-146.90;100.00;60518.97;5022371;28;20028;-77
2021/11/02 11:48:41;;;;;;;16.42;10.93;;;;;;;-146.90;100.00;60518.97;5030872;28;20025;-78
2021/11/02 11:51:08;;;;;;;14.02;10.00;;;;;;;-146.90;100.00;60518.97;5027072;28;20017;-76
2021/11/02 11:53:36;;;;;;;19.45;11.13;;;;;;;-146.90;100.00;60518.97;5025467;28;20049;-77
2021/11/02 11:56:09;;;;;;;13.73;10.02;;;;;;;-146.90;100.00;60518.97;5027155;28;20025;-76
2021/11/02 11:58:35;;;;;;;14.07;10.55;;;;;;;-146.90;100.00;60518.97;5029485;28;20045;-77
2021/11/02 12:01:09;;;;;;;14.10;10.13;;;;;;;-146.90;100.00;60518.97;5014874;28;20022;-77
2021/11/02 12:04:33;;;;;;;14.68;9.55;;;;;;;-146.90;100.00;60518.97;5029776;28;20073;-78
2021/11/02 12:07:13;;;;;;;13.93;9.07;;;;;;;-146.90;100.00;60518.97;4958979;28;20487;-78
2021/11/02 12:09:46;;;;;;;13.63;9.57;;;;;;;-146.90;100.00;60518.97;5014219;28;20092;-76
2021/11/02 12:12:13;;;;;;;12.02;9.05;;;;;;;-146.90;100.00;60518.97;5014189;28;20070;-76
2021/11/02 12:14:47;;;;;;;14.77;10.23;;;;;;;-146.90;100.00;60518.97;5027452;28;20026;-77
2021/11/02 12:17:17;;;;;;;12.07;9.65;;;;;;;-146.90;100.00;60518.97;5018985;28;20113;-77
2021/11/02 12:20:07;;;;;;;14.18;9.18;;;;;;;-146.90;100.00;60518.97;5012270;28;20025;-75
2021/11/02 12:22:49;;;;;;;13.10;9.20;;;;;;;-146.90;100.00;60518.97;5012221;28;20045;-80
2021/11/02 12:25:23;;;;;;;13.65;8.68;;;;;;;-146.90;100.00;60518.97;5027442;28;20037;-79
2021/11/02 12:27:50;;;;;;;10.00;7.53;;;;;;;-146.90;100.00;60518.97;5024962;28;20048;-80
2021/11/02 12:30:19;;;;;;;9.82;6.65;;;;;;;-146.90;100.00;60518.97;5029039;28;20068;-80
2021/11/02 12:32:48;;;;;;;9.27;6.35;;;;;;;-146.90;100.00;60518.97;5029416;28;20040;-79
2021/11/02 12:35:19;;;;;;;9.45;5.60;;;;;;;-146.90;100.00;60518.97;5027551;28;20029;-79
2021/11/02 12:37:53;;;;;;;7.75;5.03;;;;;;;-146.90;100.00;60518.97;5026452;28;20129;-80
2021/11/02 12:40:27;;;;;;;7.78;4.55;;;;;;;-146.90;100.00;60518.97;5027737;28;20526;-79
2021/11/02 12:42:53;;;;;;;7.90;4.50;;;;;;;-146.90;100.00;60518.97;5029444;28;20061;-79
2021/11/02 12:45:21;;;;;;;7.60;4.65;;;;;;;-146.90;100.00;60518.97;5028499;28;20139;-80
2021/11/02 12:47:47;;;;;;;8.23;4.70;;;;;;;-146.90;100.00;60518.97;5020770;28;20022;-79
2021/11/02 12:50:16;;;;;;;6.55;4.05;;;;;;;-146.90;100.00;60518.97;5011183;28;20056;-79
2021/11/02 12:52:41;;;;;;;5.15;3.30;;;;;;;-146.90;100.00;60518.97;5028717;28;20025;-78
2021/11/02 12:55:19;;;;;;;6.78;3.72;;;;;;;-146.90;100.00;60518.97;5027519;28;20438;-79
2021/11/02 12:57:47;;;;;;;12.35;4.25;;;;;;;-146.90;100.00;60518.97;5019568;28;20025;-79
2021/11/02 13:00:15;;;;;;;7.10;4.32;;;;;;;-146.90;100.00;60518.97;5010863;28;20028;-79
2021/11/02 13:02:43;;;;;;;8.45;4.38;;;;;;;-146.90;100.00;60518.97;5024911;28;20053;-84
2021/11/02 13:05:26;;;;;;;13.57;5.95;;;;;;;-146.90;100.00;60518.97;5017530;28;20399;-76
2021/11/02 13:08:06;;;;;;;15.07;7.28;;;;;;;-146.90;100.00;60518.97;5025954;28;20245;-76
2021/11/02 13:10:32;;;;;;;8.80;3.33;;;;;;;-146.90;100.00;60518.97;5030980;28;20025;-76
2021/11/02 13:13:25;;;;;;;9.77;5.68;;;;;;;-146.90;100.00;60518.97;5023084;28;20044;-78
2021/11/02 13:15:59;;;;;;;6.53;3.35;;;;;;;-146.90;100.00;60518.97;5021246;28;20120;-77
2021/11/02 13:18:38;;;;;;;2.90;2.05;;;;;;;-146.90;100.00;60518.97;5019175;28;20183;-78
2021/11/02 13:21:29;;;;;;;8.30;3.17;;;;;;;-146.90;100.00;60518.97;5023659;28;20134;-79
2021/11/02 13:24:02;;;;;;;4.65;2.10;;;;;;;-146.90;100.00;60518.97;5024365;28;20077;-83
2021/11/02 13:26:28;;;;;;;4.13;2.72;;;;;;;-146.90;100.00;60518.97;5012755;28;20116;-81
2021/11/02 13:29:14;;;;;;;3.38;2.53;;;;;;;-146.90;100.00;60518.97;5011578;28;20028;-80
2021/11/02 13:31:40;;;;;;;4.78;2.13;;;;;;;-146.90;100.00;60518.97;5013806;28;20125;-82
2021/11/02 13:34:31;;;;;;;2.88;1.42;;;;;;;-146.90;100.00;60518.97;5014690;28;20395;-81
2021/11/02 13:37:18;;;;;;;4.43;1.50;;;;;;;-146.90;100.00;60518.97;5012581;28;20105;-82
2021/11/02 13:39:51;;;;;;;2.80;1.45;;;;;;;-146.90;100.00;60518.97;5010727;28;20026;-77
2021/11/02 13:42:16;;;;;;;2.20;1.08;;;;;;;-146.90;100.00;60518.97;5026348;28;20672;-91
2021/11/02 13:44:47;;;;;;;1.80;1.20;;;;;;;-146.90;100.00;60518.97;5026659;28;20021;-78
2021/11/02 13:47:13;;;;;;;1.33;0.70;;;;;;;-146.90;100.00;60518.97;5020833;28;20041;-80
2021/11/02 13:49:39;;;;;;;8.82;1.20;;;;;;;-146.90;100.00;60518.97;5024624;28;20026;-81
2021/11/02 13:52:04;;;;;;;1.60;0.60;;;;;;;-146.90;100.00;60518.97;5026032;28;20025;-81
2021/11/02 13:54:30;;;;;;;4.78;1.23;;;;;;;-146.90;100.00;60518.97;5028175;28;20040;-82
2021/11/02 13:56:55;;;;;;;2.65;0.82;;;;;;;-146.90;100.00;60518.97;5027132;28;20379;-81
2021/11/02 13:59:21;;;;;;;2.75;1.20;;;;;;;-146.90;100.00;60518.97;5026698;28;20104;-81
2021/11/02 14:01:48;;;;;;;3.83;1.05;;;;;;;-146.90;100.00;60518.97;5025512;28;20021;-81
2021/11/02 14:04:30;;;;;;;0.88;0.50;;;;;;;-146.90;100.00;60518.97;5015683;28;20029;-80
2021/11/02 14:07:05;;;;;;;2.65;1.00;;;;;;;-146.90;100.00;60518.97;5012942;28;20549;-81
2021/11/02 14:09:39;;;;;;;6.35;0.85;;;;;;;-146.90;100.00;60518.97;5024452;28;20052;-82
2021/11/02 14:12:29;;;;;;;5.72;1.35;;;;;;;-146.90;100.00;60518.97;5023036;28;20108;-81
2021/11/02 14:15:09;;;;;;;9.50;1.10;;;;;;;-146.90;100.00;60518.97;5025771;28;20029;-81
2021/11/02 14:17:34;;;;;;;3.33;1.05;;;;;;;-146.90;100.00;60518.97;5026313;28;20033;-81
2021/11/02 14:20:00;;;;;;;2.60;0.98;;;;;;;-146.90;100.00;60518.97;5027815;28;20105;-80
2021/11/02 14:22:49;;;;;;;2.67;0.95;;;;;;;-146.90;100.00;60518.97;5024584;28;20149;-81
2021/11/02 14:25:19;;;;;;;3.33;1.30;;;;;;;-146.90;100.00;60518.97;5020350;28;20042;-81
2021/11/02 14:27:46;;;;;;;11.63;1.50;;;;;;;-146.90;100.00;60518.97;5026005;28;20061;-81
2021/11/02 14:30:32;;;;;;;2.47;1.20;;;;;;;-146.90;100.00;60518.97;5025184;28;20518;-81
2021/11/02 14:32:58;;;;;;;5.18;1.02;;;;;;;-146.90;100.00;60518.97;5014584;28;20116;-80
2021/11/02 14:35:42;;;;;;;2.97;1.30;;;;;;;-146.90;100.00;60518.97;5026808;28;20109;-80
2021/11/02 14:38:11;;;;;;;4.68;1.00;;;;;;;-146.90;100.00;60518.97;5018466;28;20089;-81
2021/11/02 14:40:38;;;;;;;3.28;1.20;;;;;;;-146.90;100.00;60518.97;5025320;28;20033;-80
2021/11/02 14:43:13;;;;;;;12.57;1.50;;;;;;;-146.90;100.00;60518.97;5026673;28;20018;-80
2021/11/02 14:45:39;;;;;;;4.78;1.40;;;;;;;-146.90;100.00;60518.97;5025711;28;20111;-80
2021/11/02 14:48:32;;;;;;;4.10;1.73;;;;;;;-146.90;100.00;60518.97;5024433;28;20495;-77
2021/11/02 14:51:12;;;;;;;2.42;1.35;;;;;;;-146.90;100.00;60518.97;5012157;28;20030;-77
2021/11/02 14:53:38;;;;;;;5.97;1.80;;;;;;;-146.90;100.00;60518.97;5009584;28;20053;-77
2021/11/02 14:56:07;;;;;;;3.95;1.42;;;;;;;-146.90;100.00;60518.97;5012094;28;20129;-77
2021/11/02 14:58:44;;;;;;;3.30;1.45;;;;;;;-146.90;100.00;60518.97;5013952;28;20034;-77
2021/11/02 15:01:14;;;;;;;5.05;1.40;;;;;;;-146.90;100.00;60518.97;5018338;28;20033;-77
2021/11/02 15:03:49;;;;;;;3.95;1.10;;;;;;;-146.90;100.00;60518.97;5021510;28;20325;-76
2021/11/02 15:06:15;;;;;;;4.18;1.02;;;;;;;-146.90;100.00;60518.97;5025286;28;20057;-78
2021/11/02 15:08:43;;;;;;;1.20;1.10;;;;;;;-146.90;100.00;60518.97;5023219;28;20105;-78
2021/11/02 15:11:14;;;;;;;3.85;1.13;;;;;;;-146.90;100.00;60518.97;5039685;28;20057;-77
2021/11/02 15:13:50;;;;;;;1.60;1.02;;;;;;;-146.90;100.00;60518.97;5009731;28;20419;-77
2021/11/02 15:16:16;;;;;;;2.25;0.82;;;;;;;-146.90;100.00;60518.97;5029128;28;20064;-77
2021/11/02 15:18:46;;;;;;;3.90;1.27;;;;;;;-146.90;100.00;60518.97;5029888;28;20025;-78
2021/11/02 15:21:21;;;;;;;5.13;1.33;;;;;;;-146.90;100.00;60518.97;5019660;28;20387;-79
2021/11/02 15:23:49;;;;;;;2.83;1.10;;;;;;;-146.90;100.00;60518.97;5029279;28;20371;-78
2021/11/02 15:26:16;;;;;;;3.35;0.98;;;;;;;-146.90;100.00;60518.97;5028844;28;20026;-77
2021/11/02 15:28:46;;;;;;;2.03;1.10;;;;;;;-146.90;100.00;60518.97;5027448;28;20036;-77
2021/11/02 15:31:16;;;;;;;2.83;1.23;;;;;;;-146.90;100.00;60518.97;5009536;28;20152;-78
2021/11/02 15:33:45;;;;;;;3.10;1.40;;;;;;;-146.90;100.00;60518.97;5012451;28;20100;-79
2021/11/02 15:36:22;;;;;;;1.02;0.90;;;;;;;-146.90;100.00;60518.97;5029775;28;20037;-82
2021/11/02 15:39:23;;;;;;;3.67;1.17;;;;;;;-146.90;100.00;60518.97;4999941;28;20045;-84
2021/11/02 15:41:49;;;;;;;2.97;1.20;;;;;;;-146.90;100.00;60518.97;5021340;28;20037;-94
2021/11/02 15:44:17;;;;;;;5.63;1.42;;;;;;;-146.90;100.00;60518.97;5030872;28;20026;-92
2021/11/02 15:46:42;;;;;;;6.85;1.70;;;;;;;-146.90;100.00;60518.97;5012912;28;20402;-92
2021/11/02 15:49:10;;;;;;;3.97;1.60;;;;;;;-146.90;100.00;60518.97;5027343;28;20018;-92
2021/11/02 15:51:39;;;;;;;2.00;1.25;;;;;;;-146.90;100.00;60518.97;5012133;28;20014;-93
2021/11/02 15:54:27;;;;;;;7.80;1.80;;;;;;;-146.90;100.00;60518.97;5028626;28;20045;-93
2021/11/02 15:56:55;;;;;;;3.63;1.80;;;;;;;-146.90;100.00;60518.97;5020432;28;20059;-91
2021/11/02 15:59:25;;;;;;;2.03;1.33;;;;;;;-146.90;100.00;60518.97;5027160;28;20029;-91
2021/11/02 16:01:52;;;;;;;2.72;1.52;;;;;;;-146.90;100.00;60518.97;5031965;28;20025;-93
2021/11/02 16:04:22;;;;;;;3.72;1.90;;;;;;;-146.90;100.00;60518.97;5033062;28;20033;-92
2021/11/02 16:06:57;;;;;;;2.95;1.70;;;;;;;-146.90;100.00;60518.97;5031102;28;20036;-93
2021/11/02 16:09:25;;;;;;;6.45;1.90;;;;;;;-146.90;100.00;60518.97;5028355;28;20075;-77
2021/11/02 16:11:51;;;;;;;14.32;4.70;;;;;;;-146.90;100.00;60518.97;5029895;28;20056;-77
2021/11/02 16:14:19;;;;;;;8.20;2.58;;;;;;;-146.90;100.00;60518.97;5028545;28;20030;-77
2021/11/02 16:16:49;;;;;;;4.32;2.25;;;;;;;-146.90;100.00;60518.97;5029162;28;20675;-84
2021/11/02 16:19:14;;;;;;;5.25;1.80;;;;;;;-146.90;100.00;60518.97;5021359;28;20018;-83
2021/11/02 16:21:40;;;;;;;2.67;1.90;;;;;;;-146.90;100.00;60518.97;5025844;28;20366;-82